PWSweather.com
Personal Weather Stations
Station Observations
BSWETTER1
Bswetter.de, BraunschweigDE 38106

Bswetter.deBraunschweigDE 38106

Lat: 52.2751483, Lon: 10.5434341

Elevation: 295

Station Type: Davis Vantage II Pro Plus Aktiv

http://bswetter.de/

High Low Average
Temperature 66.7°F19.3°C 51.9°F11.1°C 58.1°F14.5°C
Dew Point 54.4°F12.4°C 42.2°F5.7°C 49.3°F9.6°C
Winds 21.9 mph 35.2 kmh 1.2 mph 1.9 kmh 9.0 mph SW14.5 kmh SW
Wind Gusts 42.6 mph68.6 kmh 2.3 mph3.7 kmh 16.0 mph25.7 kmh
Humidity 89% 43% 74%
Pressure 29.75 in1007.5 mb 29.36 in994.2 mb -
Precipitation 0.13 in3.3 mm - -
Hour Temp Dew Point Humidity Winds Wind Gusts Pressure Precip Precip Rate Daily Precip Total
12:00 AM 53.1°F11.7°C 48.4°F9.1°C 84% 3.5 mph S5.6 kmh S 8.1 mph13.0 kmh 29.75 in1007.5 mb - 0.00 in0.0 mm 0.00 in0.0 mm
12:10 AM 53.0°F11.7°C 48.3°F9.1°C 84% 6.9 mph SSW11.1 kmh SSW 11.5 mph18.5 kmh 29.75 in1007.5 mb - 0.00 in0.0 mm 0.00 in0.0 mm
12:15 AM 52.9°F11.6°C 48.2°F9.0°C 84% 4.6 mph S7.4 kmh S 6.9 mph11.1 kmh 29.75 in1007.5 mb - 0.00 in0.0 mm 0.00 in0.0 mm
12:20 AM 52.8°F11.6°C 48.4°F9.1°C 85% 4.6 mph SSW7.4 kmh SSW 8.1 mph13.0 kmh 29.75 in1007.5 mb - 0.00 in0.0 mm 0.00 in0.0 mm
12:25 AM 52.7°F11.5°C 48.3°F9.1°C 85% 4.6 mph SSW7.4 kmh SSW 6.9 mph11.1 kmh 29.74 in1007.1 mb - 0.00 in0.0 mm 0.00 in0.0 mm
12:30 AM 52.6°F11.4°C 48.2°F9.0°C 85% 4.6 mph S7.4 kmh S 8.1 mph13.0 kmh 29.74 in1007.1 mb - 0.00 in0.0 mm 0.00 in0.0 mm
12:35 AM 52.6°F11.4°C 48.2°F9.0°C 85% 4.6 mph SSW7.4 kmh SSW 8.1 mph13.0 kmh 29.74 in1007.1 mb - 0.00 in0.0 mm 0.00 in0.0 mm
12:40 AM 52.6°F11.4°C 48.2°F9.0°C 85% 2.3 mph SSW3.7 kmh SSW 8.1 mph13.0 kmh 29.74 in1007.1 mb - 0.00 in0.0 mm 0.00 in0.0 mm
12:45 AM 52.5°F11.4°C 48.1°F8.9°C 85% 2.3 mph S3.7 kmh S 5.8 mph9.3 kmh 29.73 in1006.8 mb - 0.00 in0.0 mm 0.00 in0.0 mm
12:50 AM 52.5°F11.4°C 48.4°F9.1°C 86% 2.3 mph S3.7 kmh S 5.8 mph9.3 kmh 29.74 in1007.1 mb - 0.00 in0.0 mm 0.00 in0.0 mm
12:55 AM 52.3°F11.3°C 48.2°F9.0°C 86% 2.3 mph S3.7 kmh S 6.9 mph11.1 kmh 29.73 in1006.8 mb - 0.00 in0.0 mm 0.00 in0.0 mm
01:00 AM 52.2°F11.2°C 48.1°F8.9°C 86% 2.3 mph S3.7 kmh S 3.5 mph5.6 kmh 29.73 in1006.8 mb - 0.00 in0.0 mm 0.00 in0.0 mm
01:10 AM 52.1°F11.2°C 48.0°F8.9°C 86% 2.3 mph S3.7 kmh S 3.5 mph5.6 kmh 29.73 in1006.8 mb - 0.00 in0.0 mm 0.00 in0.0 mm
01:15 AM 52.0°F11.1°C 48.3°F9.1°C 87% 1.2 mph S1.9 kmh S 2.3 mph3.7 kmh 29.73 in1006.8 mb - 0.00 in0.0 mm 0.00 in0.0 mm
01:20 AM 52.0°F11.1°C 48.2°F9.0°C 87% 1.2 mph S1.9 kmh S 4.6 mph7.4 kmh 29.72 in1006.4 mb - 0.00 in0.0 mm 0.00 in0.0 mm
01:25 AM 51.9°F11.1°C 48.2°F9.0°C 87% 1.2 mph S1.9 kmh S 3.5 mph5.6 kmh 29.72 in1006.4 mb - 0.00 in0.0 mm 0.00 in0.0 mm
01:30 AM 51.9°F11.1°C 48.2°F9.0°C 87% 2.3 mph S3.7 kmh S 4.6 mph7.4 kmh 29.72 in1006.4 mb - 0.00 in0.0 mm 0.00 in0.0 mm
01:35 AM 52.0°F11.1°C 48.3°F9.1°C 87% 4.6 mph S7.4 kmh S 4.6 mph7.4 kmh 29.72 in1006.4 mb - 0.00 in0.0 mm 0.00 in0.0 mm
01:40 AM 52.2°F11.2°C 48.4°F9.1°C 87% 4.6 mph S7.4 kmh S 6.9 mph11.1 kmh 29.71 in1006.1 mb - 0.00 in0.0 mm 0.00 in0.0 mm
01:45 AM 52.3°F11.3°C 48.2°F9.0°C 86% 3.5 mph SSW5.6 kmh SSW 10.4 mph16.7 kmh 29.71 in1006.1 mb - 0.00 in0.0 mm 0.00 in0.0 mm
01:50 AM 52.4°F11.3°C 48.4°F9.1°C 86% 3.5 mph SSW5.6 kmh SSW 9.2 mph14.8 kmh 29.71 in1006.1 mb - 0.00 in0.0 mm 0.00 in0.0 mm
01:55 AM 52.5°F11.4°C 48.5°F9.2°C 86% 4.6 mph S7.4 kmh S 8.1 mph13.0 kmh 29.71 in1006.1 mb - 0.00 in0.0 mm 0.00 in0.0 mm
02:00 AM 52.6°F11.4°C 48.5°F9.2°C 86% 4.6 mph S7.4 kmh S 5.8 mph9.3 kmh 29.71 in1006.1 mb - 0.00 in0.0 mm 0.00 in0.0 mm
02:10 AM 52.7°F11.5°C 48.6°F9.2°C 86% 2.3 mph S3.7 kmh S 10.4 mph16.7 kmh 29.70 in1005.8 mb - 0.00 in0.0 mm 0.00 in0.0 mm
02:15 AM 52.7°F11.5°C 48.3°F9.1°C 85% 4.6 mph SSW7.4 kmh SSW 8.1 mph13.0 kmh 29.71 in1006.1 mb - 0.00 in0.0 mm 0.00 in0.0 mm
02:20 AM 52.7°F11.5°C 48.4°F9.1°C 85% 3.5 mph S5.6 kmh S 3.5 mph5.6 kmh 29.70 in1005.8 mb - 0.00 in0.0 mm 0.00 in0.0 mm
02:25 AM 52.7°F11.5°C 48.3°F9.1°C 85% 4.6 mph SSW7.4 kmh SSW 10.4 mph16.7 kmh 29.70 in1005.8 mb - 0.00 in0.0 mm 0.00 in0.0 mm
02:30 AM 52.8°F11.6°C 48.4°F9.1°C 85% 4.6 mph S7.4 kmh S 5.8 mph9.3 kmh 29.70 in1005.8 mb - 0.00 in0.0 mm 0.00 in0.0 mm
02:35 AM 52.8°F11.6°C 48.4°F9.1°C 85% 5.8 mph SSW9.3 kmh SSW 12.7 mph20.4 kmh 29.70 in1005.8 mb - 0.00 in0.0 mm 0.00 in0.0 mm
02:40 AM 52.8°F11.6°C 48.4°F9.1°C 85% 4.6 mph SSW7.4 kmh SSW 10.4 mph16.7 kmh 29.69 in1005.4 mb - 0.00 in0.0 mm 0.00 in0.0 mm
02:45 AM 52.8°F11.6°C 48.4°F9.1°C 85% 3.5 mph S5.6 kmh S 5.8 mph9.3 kmh 29.69 in1005.4 mb - 0.00 in0.0 mm 0.00 in0.0 mm
02:50 AM 52.7°F11.5°C 48.4°F9.1°C 85% 3.5 mph S5.6 kmh S 9.2 mph14.8 kmh 29.68 in1005.1 mb - 0.00 in0.0 mm 0.00 in0.0 mm
02:55 AM 52.7°F11.5°C 48.3°F9.1°C 85% 4.6 mph S7.4 kmh S 9.2 mph14.8 kmh 29.68 in1005.1 mb - 0.00 in0.0 mm 0.00 in0.0 mm
03:00 AM 52.6°F11.4°C 48.2°F9.0°C 85% 5.8 mph S9.3 kmh S 10.4 mph16.7 kmh 29.68 in1005.1 mb - 0.00 in0.0 mm 0.00 in0.0 mm
03:10 AM 52.6°F11.4°C 48.2°F9.0°C 85% 4.6 mph S7.4 kmh S 6.9 mph11.1 kmh 29.68 in1005.1 mb - 0.00 in0.0 mm 0.00 in0.0 mm
03:15 AM 52.4°F11.3°C 48.0°F8.9°C 85% 4.6 mph S7.4 kmh S 6.9 mph11.1 kmh 29.67 in1004.7 mb - 0.00 in0.0 mm 0.00 in0.0 mm
03:20 AM 52.4°F11.3°C 48.0°F8.9°C 85% 4.6 mph S7.4 kmh S 6.9 mph11.1 kmh 29.67 in1004.7 mb - 0.00 in0.0 mm 0.00 in0.0 mm
03:25 AM 52.3°F11.3°C 47.9°F8.8°C 85% 3.5 mph S5.6 kmh S 4.6 mph7.4 kmh 29.66 in1004.4 mb - 0.00 in0.0 mm 0.00 in0.0 mm
03:30 AM 52.2°F11.2°C 48.1°F8.9°C 86% 4.6 mph S7.4 kmh S 6.9 mph11.1 kmh 29.66 in1004.4 mb - 0.00 in0.0 mm 0.00 in0.0 mm
03:35 AM 52.3°F11.3°C 48.2°F9.0°C 86% 4.6 mph S7.4 kmh S 10.4 mph16.7 kmh 29.65 in1004.1 mb - 0.00 in0.0 mm 0.00 in0.0 mm
03:40 AM 52.4°F11.3°C 48.0°F8.9°C 85% 6.9 mph S11.1 kmh S 10.4 mph16.7 kmh 29.65 in1004.1 mb - 0.00 in0.0 mm 0.00 in0.0 mm
03:45 AM 52.5°F11.4°C 48.1°F8.9°C 85% 3.5 mph S5.6 kmh S 10.4 mph16.7 kmh 29.65 in1004.1 mb - 0.00 in0.0 mm 0.00 in0.0 mm
03:50 AM 52.6°F11.4°C 48.2°F9.0°C 85% 6.9 mph S11.1 kmh S 10.4 mph16.7 kmh 29.65 in1004.1 mb - 0.00 in0.0 mm 0.00 in0.0 mm
03:55 AM 52.6°F11.4°C 48.2°F9.0°C 85% 4.6 mph S7.4 kmh S 9.2 mph14.8 kmh 29.64 in1003.7 mb - 0.00 in0.0 mm 0.00 in0.0 mm
04:00 AM 52.7°F11.5°C 48.0°F8.9°C 84% 5.8 mph S9.3 kmh S 6.9 mph11.1 kmh 29.64 in1003.7 mb - 0.00 in0.0 mm 0.00 in0.0 mm
04:10 AM 52.7°F11.5°C 48.3°F9.1°C 85% 4.6 mph SSE7.4 kmh SSE 5.8 mph9.3 kmh 29.64 in1003.7 mb - 0.00 in0.0 mm 0.00 in0.0 mm
04:15 AM 52.7°F11.5°C 48.0°F8.9°C 84% 4.6 mph S7.4 kmh S 6.9 mph11.1 kmh 29.63 in1003.4 mb - 0.00 in0.0 mm 0.00 in0.0 mm
04:20 AM 52.7°F11.5°C 48.0°F8.9°C 84% 4.6 mph S7.4 kmh S 5.8 mph9.3 kmh 29.62 in1003.0 mb - 0.00 in0.0 mm 0.00 in0.0 mm
04:25 AM 52.8°F11.6°C 48.1°F8.9°C 84% 4.6 mph SSE7.4 kmh SSE 8.1 mph13.0 kmh 29.63 in1003.4 mb - 0.00 in0.0 mm 0.00 in0.0 mm
04:30 AM 52.8°F11.6°C 48.1°F8.9°C 84% 4.6 mph S7.4 kmh S 8.1 mph13.0 kmh 29.62 in1003.0 mb - 0.00 in0.0 mm 0.00 in0.0 mm
04:35 AM 52.8°F11.6°C 48.1°F8.9°C 84% 3.5 mph S5.6 kmh S 6.9 mph11.1 kmh 29.61 in1002.7 mb - 0.00 in0.0 mm 0.00 in0.0 mm
04:40 AM 52.8°F11.6°C 48.1°F8.9°C 84% 3.5 mph SSE5.6 kmh SSE 8.1 mph13.0 kmh 29.61 in1002.7 mb - 0.00 in0.0 mm 0.00 in0.0 mm
04:45 AM 52.9°F11.6°C 48.2°F9.0°C 84% 5.8 mph SSE9.3 kmh SSE 8.1 mph13.0 kmh 29.61 in1002.7 mb - 0.00 in0.0 mm 0.00 in0.0 mm
04:50 AM 53.0°F11.7°C 48.3°F9.1°C 84% 4.6 mph S7.4 kmh S 8.1 mph13.0 kmh 29.60 in1002.4 mb - 0.00 in0.0 mm 0.00 in0.0 mm
04:55 AM 53.0°F11.7°C 48.3°F9.1°C 84% 3.5 mph SE5.6 kmh SE 6.9 mph11.1 kmh 29.59 in1002.0 mb - 0.00 in0.0 mm 0.00 in0.0 mm
05:00 AM 53.0°F11.7°C 48.3°F9.1°C 84% 2.3 mph SSE3.7 kmh SSE 4.6 mph7.4 kmh 29.59 in1002.0 mb - 0.00 in0.0 mm 0.00 in0.0 mm
05:10 AM 53.1°F11.7°C 48.4°F9.1°C 84% 4.6 mph S7.4 kmh S 10.4 mph16.7 kmh 29.58 in1001.7 mb - 0.00 in0.0 mm 0.00 in0.0 mm
05:15 AM 53.3°F11.8°C 48.6°F9.2°C 84% 4.6 mph S7.4 kmh S 9.2 mph14.8 kmh 29.58 in1001.7 mb - 0.01 in0.3 mm 0.01 in0.3 mm
05:20 AM 53.5°F11.9°C 48.8°F9.3°C 84% 3.5 mph S5.6 kmh S 6.9 mph11.1 kmh 29.58 in1001.7 mb - 0.00 in0.0 mm 0.01 in0.3 mm
05:25 AM 53.5°F11.9°C 48.8°F9.3°C 84% 2.3 mph SE3.7 kmh SE 3.5 mph5.6 kmh 29.57 in1001.4 mb - 0.00 in0.0 mm 0.01 in0.3 mm
05:30 AM 53.4°F11.9°C 49.0°F9.4°C 85% 3.5 mph SE5.6 kmh SE 6.9 mph11.1 kmh 29.57 in1001.4 mb - 0.00 in0.0 mm 0.01 in0.3 mm
05:35 AM 53.3°F11.8°C 48.9°F9.4°C 85% 6.9 mph SE11.1 kmh SE 11.5 mph18.5 kmh 29.56 in1001.0 mb - 0.01 in0.3 mm 0.02 in0.5 mm
05:40 AM 53.4°F11.9°C 49.0°F9.4°C 85% 4.6 mph SE7.4 kmh SE 8.1 mph13.0 kmh 29.55 in1000.7 mb - 0.01 in0.3 mm 0.02 in0.5 mm
05:45 AM 53.5°F11.9°C 49.4°F9.7°C 86% 3.5 mph SSE5.6 kmh SSE 10.4 mph16.7 kmh 29.55 in1000.7 mb - 0.01 in0.3 mm 0.02 in0.5 mm
05:50 AM 53.5°F11.9°C 49.4°F9.7°C 86% 3.5 mph SSE5.6 kmh SSE 10.4 mph16.7 kmh 29.55 in1000.7 mb - 0.01 in0.3 mm 0.03 in0.8 mm
05:55 AM 53.4°F11.9°C 49.3°F9.6°C 86% 5.8 mph SSE9.3 kmh SSE 8.1 mph13.0 kmh 29.54 in1000.3 mb - 0.00 in0.0 mm 0.03 in0.8 mm
06:00 AM 53.4°F11.9°C 49.6°F9.8°C 87% 8.1 mph SE13.0 kmh SE 11.5 mph18.5 kmh 29.54 in1000.3 mb - 0.01 in0.3 mm 0.04 in1.0 mm
06:10 AM 53.3°F11.8°C 49.6°F9.8°C 87% 5.8 mph SSE9.3 kmh SSE 9.2 mph14.8 kmh 29.53 in1000.0 mb - 0.00 in0.0 mm 0.04 in1.0 mm
06:15 AM 53.3°F11.8°C 49.5°F9.7°C 87% 2.3 mph SE3.7 kmh SE 4.6 mph7.4 kmh 29.52 in999.7 mb - 0.00 in0.0 mm 0.04 in1.0 mm
06:20 AM 53.2°F11.8°C 49.8°F9.9°C 88% 4.6 mph SSE7.4 kmh SSE 5.8 mph9.3 kmh 29.52 in999.7 mb - 0.00 in0.0 mm 0.04 in1.0 mm
06:25 AM 53.3°F11.8°C 49.8°F9.9°C 88% 9.2 mph SSE14.8 kmh SSE 11.5 mph18.5 kmh 29.51 in999.3 mb - 0.00 in0.0 mm 0.04 in1.0 mm
06:30 AM 53.5°F11.9°C 49.7°F9.8°C 87% 5.8 mph S9.3 kmh S 13.8 mph22.2 kmh 29.51 in999.3 mb - 0.01 in0.3 mm 0.05 in1.3 mm
06:35 AM 53.6°F12.0°C 49.8°F9.9°C 87% 6.9 mph SSE11.1 kmh SSE 10.4 mph16.7 kmh 29.50 in999.0 mb - 0.01 in0.3 mm 0.06 in1.5 mm
06:40 AM 53.6°F12.0°C 50.1°F10.1°C 88% 9.2 mph SSE14.8 kmh SSE 18.4 mph29.6 kmh 29.50 in999.0 mb - 0.02 in0.5 mm 0.07 in1.8 mm
06:45 AM 53.6°F12.0°C 50.1°F10.1°C 88% 8.1 mph SSE13.0 kmh SSE 11.5 mph18.5 kmh 29.50 in999.0 mb - 0.01 in0.3 mm 0.07 in1.8 mm
06:50 AM 53.6°F12.0°C 50.1°F10.1°C 88% 10.4 mph S16.7 kmh S 13.8 mph22.2 kmh 29.49 in998.6 mb - 0.01 in0.3 mm 0.08 in2.0 mm
06:55 AM 53.6°F12.0°C 50.1°F10.1°C 88% 6.9 mph S11.1 kmh S 13.8 mph22.2 kmh 29.49 in998.6 mb - 0.00 in0.0 mm 0.08 in2.0 mm
07:00 AM 53.6°F12.0°C 50.1°F10.1°C 88% 8.1 mph S13.0 kmh S 17.3 mph27.8 kmh 29.49 in998.6 mb - 0.01 in0.3 mm 0.09 in2.3 mm
07:10 AM 53.6°F12.0°C 50.1°F10.1°C 88% 6.9 mph S11.1 kmh S 18.4 mph29.6 kmh 29.48 in998.3 mb - 0.00 in0.0 mm 0.09 in2.3 mm
07:15 AM 53.6°F12.0°C 50.1°F10.1°C 88% 9.2 mph S14.8 kmh S 11.5 mph18.5 kmh 29.47 in998.0 mb - 0.02 in0.5 mm 0.10 in2.5 mm
07:20 AM 53.6°F12.0°C 50.1°F10.1°C 88% 5.8 mph SSE9.3 kmh SSE 8.1 mph13.0 kmh 29.47 in998.0 mb - 0.01 in0.3 mm 0.10 in2.5 mm
07:25 AM 53.6°F12.0°C 50.1°F10.1°C 88% 9.2 mph S14.8 kmh S 17.3 mph27.8 kmh 29.46 in997.6 mb - 0.02 in0.5 mm 0.12 in3.0 mm
07:30 AM 53.5°F11.9°C 50.3°F10.2°C 89% 4.6 mph S7.4 kmh S 8.1 mph13.0 kmh 29.46 in997.6 mb - 0.01 in0.3 mm 0.12 in3.0 mm
07:35 AM 53.5°F11.9°C 50.3°F10.2°C 89% 10.4 mph SSE16.7 kmh SSE 18.4 mph29.6 kmh 29.46 in997.6 mb - 0.01 in0.3 mm 0.13 in3.3 mm
07:40 AM 53.5°F11.9°C 50.3°F10.2°C 89% 10.4 mph S16.7 kmh S 11.5 mph18.5 kmh 29.46 in997.6 mb - 0.00 in0.0 mm 0.13 in3.3 mm
07:45 AM 53.5°F11.9°C 50.3°F10.2°C 89% 10.4 mph S16.7 kmh S 16.1 mph25.9 kmh 29.45 in997.3 mb - 0.00 in0.0 mm 0.13 in3.3 mm
07:50 AM 53.6°F12.0°C 50.4°F10.2°C 89% 10.4 mph S16.7 kmh S 13.8 mph22.2 kmh 29.45 in997.3 mb - 0.00 in0.0 mm 0.13 in3.3 mm
07:55 AM 53.6°F12.0°C 50.4°F10.2°C 89% 5.8 mph S9.3 kmh S 10.4 mph16.7 kmh 29.45 in997.3 mb - 0.00 in0.0 mm 0.13 in3.3 mm
08:00 AM 53.6°F12.0°C 50.4°F10.2°C 89% 6.9 mph S11.1 kmh S 11.5 mph18.5 kmh 29.45 in997.3 mb - 0.00 in0.0 mm 0.13 in3.3 mm
08:10 AM 53.9°F12.2°C 50.7°F10.4°C 89% 11.5 mph S18.5 kmh S 12.7 mph20.4 kmh 29.44 in997.0 mb - 0.00 in0.0 mm 0.13 in3.3 mm
08:15 AM 54.1°F12.3°C 50.9°F10.5°C 89% 4.6 mph S7.4 kmh S 10.4 mph16.7 kmh 29.44 in997.0 mb - 0.00 in0.0 mm 0.13 in3.3 mm
08:20 AM 54.2°F12.3°C 50.7°F10.4°C 88% 8.1 mph S13.0 kmh S 15.0 mph24.1 kmh 29.44 in997.0 mb - 0.00 in0.0 mm 0.13 in3.3 mm
08:25 AM 54.3°F12.4°C 50.8°F10.4°C 88% 12.7 mph S20.4 kmh S 26.5 mph42.6 kmh 29.44 in997.0 mb - 0.01 in0.3 mm 0.13 in3.3 mm
08:30 AM 54.4°F12.4°C 50.9°F10.5°C 88% 11.5 mph S18.5 kmh S 15.0 mph24.1 kmh 29.43 in996.6 mb - 0.01 in0.3 mm 0.13 in3.3 mm
08:35 AM 54.6°F12.6°C 51.1°F10.6°C 88% 6.9 mph SSW11.1 kmh SSW 11.5 mph18.5 kmh 29.43 in996.6 mb - 0.00 in0.0 mm 0.13 in3.3 mm
08:40 AM 54.8°F12.7°C 51.3°F10.7°C 88% 12.7 mph S20.4 kmh S 16.1 mph25.9 kmh 29.43 in996.6 mb - 0.00 in0.0 mm 0.13 in3.3 mm
08:45 AM 55.1°F12.8°C 51.6°F10.9°C 88% 6.9 mph S11.1 kmh S 11.5 mph18.5 kmh 29.43 in996.6 mb - 0.00 in0.0 mm 0.13 in3.3 mm
08:50 AM 55.4°F13.0°C 51.6°F10.9°C 87% 12.7 mph SSW20.4 kmh SSW 21.9 mph35.2 kmh 29.42 in996.3 mb - 0.00 in0.0 mm 0.13 in3.3 mm
08:55 AM 55.6°F13.1°C 51.5°F10.8°C 86% 8.1 mph S13.0 kmh S 12.7 mph20.4 kmh 29.43 in996.6 mb - 0.00 in0.0 mm 0.13 in3.3 mm
09:00 AM 55.7°F13.2°C 51.6°F10.9°C 86% 8.1 mph S13.0 kmh S 13.8 mph22.2 kmh 29.43 in996.6 mb - 0.00 in0.0 mm 0.13 in3.3 mm
09:10 AM 55.8°F13.2°C 51.7°F10.9°C 86% 8.1 mph S13.0 kmh S 18.4 mph29.6 kmh 29.42 in996.3 mb - 0.00 in0.0 mm 0.13 in3.3 mm
09:15 AM 55.9°F13.3°C 51.8°F11.0°C 86% 6.9 mph S11.1 kmh S 12.7 mph20.4 kmh 29.41 in995.9 mb - 0.00 in0.0 mm 0.13 in3.3 mm
09:20 AM 56.2°F13.4°C 52.1°F11.2°C 86% 11.5 mph S18.5 kmh S 21.9 mph35.2 kmh 29.41 in995.9 mb - 0.00 in0.0 mm 0.13 in3.3 mm
09:25 AM 56.5°F13.6°C 52.0°F11.1°C 85% 11.5 mph S18.5 kmh S 19.6 mph31.5 kmh 29.41 in995.9 mb - 0.00 in0.0 mm 0.13 in3.3 mm
09:30 AM 56.6°F13.7°C 52.1°F11.2°C 85% 11.5 mph SSW18.5 kmh SSW 23.0 mph37.0 kmh 29.42 in996.3 mb - 0.00 in0.0 mm 0.13 in3.3 mm
09:35 AM 56.5°F13.6°C 52.4°F11.3°C 86% 11.5 mph SSW18.5 kmh SSW 26.5 mph42.6 kmh 29.42 in996.3 mb - 0.00 in0.0 mm 0.13 in3.3 mm
09:40 AM 56.2°F13.4°C 52.4°F11.3°C 87% 10.4 mph SSW16.7 kmh SSW 26.5 mph42.6 kmh 29.41 in995.9 mb - 0.00 in0.0 mm 0.13 in3.3 mm
09:45 AM 56.1°F13.4°C 52.3°F11.3°C 87% 9.2 mph S14.8 kmh S 23.0 mph37.0 kmh 29.41 in995.9 mb - 0.00 in0.0 mm 0.13 in3.3 mm
09:50 AM 56.5°F13.6°C 52.6°F11.4°C 87% 8.1 mph S13.0 kmh S 19.6 mph31.5 kmh 29.40 in995.6 mb - 0.00 in0.0 mm 0.13 in3.3 mm
09:55 AM 56.9°F13.8°C 53.1°F11.7°C 87% 9.2 mph SSW14.8 kmh SSW 18.4 mph29.6 kmh 29.40 in995.6 mb - 0.00 in0.0 mm 0.13 in3.3 mm
10:00 AM 57.7°F14.3°C 53.5°F11.9°C 86% 9.2 mph SSW14.8 kmh SSW 19.6 mph31.5 kmh 29.40 in995.6 mb - 0.00 in0.0 mm 0.13 in3.3 mm
10:10 AM 59.1°F15.1°C 53.2°F11.8°C 81% 9.2 mph S14.8 kmh S 21.9 mph35.2 kmh 29.38 in994.9 mb - 0.00 in0.0 mm 0.13 in3.3 mm
10:15 AM 59.6°F15.3°C 53.4°F11.9°C 80% 11.5 mph SW18.5 kmh SW 24.2 mph38.9 kmh 29.38 in994.9 mb - 0.00 in0.0 mm 0.13 in3.3 mm
10:20 AM 60.0°F15.6°C 53.5°F11.9°C 79% 13.8 mph SSW22.2 kmh SSW 19.6 mph31.5 kmh 29.38 in994.9 mb - 0.00 in0.0 mm 0.13 in3.3 mm
10:25 AM 60.4°F15.8°C 53.8°F12.1°C 79% 9.2 mph SW14.8 kmh SW 21.9 mph35.2 kmh 29.38 in994.9 mb - 0.00 in0.0 mm 0.13 in3.3 mm
10:30 AM 60.5°F15.8°C 54.0°F12.2°C 79% 11.5 mph SSW18.5 kmh SSW 24.2 mph38.9 kmh 29.38 in994.9 mb - 0.00 in0.0 mm 0.13 in3.3 mm
10:35 AM 60.6°F15.9°C 53.7°F12.1°C 78% 15.0 mph S24.1 kmh S 24.2 mph38.9 kmh 29.39 in995.3 mb - 0.00 in0.0 mm 0.13 in3.3 mm
10:40 AM 60.8°F16.0°C 53.9°F12.2°C 78% 13.8 mph SSW22.2 kmh SSW 19.6 mph31.5 kmh 29.38 in994.9 mb - 0.00 in0.0 mm 0.13 in3.3 mm
10:45 AM 61.0°F16.1°C 53.4°F11.9°C 76% 19.6 mph SW31.5 kmh SW 26.5 mph42.6 kmh 29.38 in994.9 mb - 0.00 in0.0 mm 0.13 in3.3 mm
10:50 AM 61.3°F16.3°C 53.7°F12.1°C 76% 13.8 mph SSW22.2 kmh SSW 21.9 mph35.2 kmh 29.38 in994.9 mb - 0.00 in0.0 mm 0.13 in3.3 mm
10:55 AM 61.6°F16.4°C 53.6°F12.0°C 75% 17.3 mph SSW27.8 kmh SSW 26.5 mph42.6 kmh 29.38 in994.9 mb - 0.00 in0.0 mm 0.13 in3.3 mm
11:00 AM 61.7°F16.5°C 53.7°F12.1°C 75% 15.0 mph SSW24.1 kmh SSW 23.0 mph37.0 kmh 29.38 in994.9 mb - 0.00 in0.0 mm 0.13 in3.3 mm
11:10 AM 62.2°F16.8°C 53.8°F12.1°C 74% 11.5 mph SSW18.5 kmh SSW 19.6 mph31.5 kmh 29.37 in994.6 mb - 0.00 in0.0 mm 0.13 in3.3 mm
11:15 AM 62.6°F17.0°C 53.8°F12.1°C 73% 17.3 mph SSW27.8 kmh SSW 31.1 mph50.1 kmh 29.37 in994.6 mb - 0.00 in0.0 mm 0.13 in3.3 mm
11:20 AM 62.9°F17.2°C 54.1°F12.3°C 73% 10.4 mph SSW16.7 kmh SSW 20.7 mph33.3 kmh 29.36 in994.2 mb - 0.00 in0.0 mm 0.13 in3.3 mm
11:25 AM 63.2°F17.3°C 54.0°F12.2°C 72% 13.8 mph SW22.2 kmh SW 18.4 mph29.6 kmh 29.36 in994.2 mb - 0.00 in0.0 mm 0.13 in3.3 mm
11:30 AM 63.4°F17.4°C 54.2°F12.3°C 72% 16.1 mph SW25.9 kmh SW 21.9 mph35.2 kmh 29.36 in994.2 mb - 0.00 in0.0 mm 0.13 in3.3 mm
11:35 AM 63.3°F17.4°C 54.1°F12.3°C 72% 13.8 mph SSW22.2 kmh SSW 16.1 mph25.9 kmh 29.36 in994.2 mb - 0.00 in0.0 mm 0.13 in3.3 mm
11:40 AM 63.2°F17.3°C 54.0°F12.2°C 72% 11.5 mph SSW18.5 kmh SSW 26.5 mph42.6 kmh 29.36 in994.2 mb - 0.00 in0.0 mm 0.13 in3.3 mm
11:45 AM 63.2°F17.3°C 54.4°F12.4°C 73% 13.8 mph SSW22.2 kmh SSW 26.5 mph42.6 kmh 29.36 in994.2 mb - 0.00 in0.0 mm 0.13 in3.3 mm
11:50 AM 63.2°F17.3°C 54.4°F12.4°C 73% 11.5 mph S18.5 kmh S 20.7 mph33.3 kmh 29.36 in994.2 mb - 0.00 in0.0 mm 0.13 in3.3 mm
11:55 AM 63.0°F17.2°C 54.2°F12.3°C 73% 9.2 mph SW14.8 kmh SW 20.7 mph33.3 kmh 29.36 in994.2 mb - 0.00 in0.0 mm 0.13 in3.3 mm
12:00 PM 62.6°F17.0°C 53.9°F12.2°C 73% 6.9 mph SSW11.1 kmh SSW 15.0 mph24.1 kmh 29.36 in994.2 mb - 0.00 in0.0 mm 0.13 in3.3 mm
12:10 PM 62.6°F17.0°C 53.8°F12.1°C 73% 11.5 mph SSW18.5 kmh SSW 17.3 mph27.8 kmh 29.36 in994.2 mb - 0.00 in0.0 mm 0.13 in3.3 mm
12:15 PM 63.3°F17.4°C 54.1°F12.3°C 72% 10.4 mph SW16.7 kmh SW 35.7 mph57.5 kmh 29.36 in994.2 mb - 0.00 in0.0 mm 0.13 in3.3 mm
12:20 PM 64.2°F17.9°C 53.4°F11.9°C 68% 12.7 mph WSW20.4 kmh WSW 17.3 mph27.8 kmh 29.36 in994.2 mb - 0.00 in0.0 mm 0.13 in3.3 mm
12:25 PM 65.1°F18.4°C 52.7°F11.5°C 64% 18.4 mph SW29.6 kmh SW 28.8 mph46.3 kmh 29.36 in994.2 mb - 0.00 in0.0 mm 0.13 in3.3 mm
12:30 PM 65.8°F18.8°C 51.5°F10.8°C 60% 16.1 mph WSW25.9 kmh WSW 32.2 mph51.8 kmh 29.37 in994.6 mb - 0.00 in0.0 mm 0.13 in3.3 mm
12:35 PM 66.1°F18.9°C 50.9°F10.5°C 58% 11.5 mph WSW18.5 kmh WSW 20.7 mph33.3 kmh 29.37 in994.6 mb - 0.00 in0.0 mm 0.13 in3.3 mm
12:40 PM 66.4°F19.1°C 50.7°F10.4°C 57% 15.0 mph WSW24.1 kmh WSW 23.0 mph37.0 kmh 29.37 in994.6 mb - 0.00 in0.0 mm 0.13 in3.3 mm
12:45 PM 66.7°F19.3°C 51.9°F11.1°C 59% 16.1 mph WNW25.9 kmh WNW 24.2 mph38.9 kmh 29.38 in994.9 mb - 0.00 in0.0 mm 0.13 in3.3 mm
12:50 PM 65.5°F18.6°C 52.2°F11.2°C 62% 12.7 mph WSW20.4 kmh WSW 19.6 mph31.5 kmh 29.38 in994.9 mb - 0.00 in0.0 mm 0.13 in3.3 mm
12:55 PM 64.8°F18.2°C 51.9°F11.1°C 63% 9.2 mph W14.8 kmh W 23.0 mph37.0 kmh 29.38 in994.9 mb - 0.00 in0.0 mm 0.13 in3.3 mm
01:00 PM 63.8°F17.7°C 52.2°F11.2°C 66% 19.6 mph WSW31.5 kmh WSW 34.5 mph55.5 kmh 29.40 in995.6 mb - 0.00 in0.0 mm 0.13 in3.3 mm
01:10 PM 60.4°F15.8°C 52.1°F11.2°C 74% 12.7 mph WSW20.4 kmh WSW 15.0 mph24.1 kmh 29.40 in995.6 mb - 0.00 in0.0 mm 0.13 in3.3 mm
01:15 PM 60.5°F15.8°C 52.9°F11.6°C 76% 12.7 mph WSW20.4 kmh WSW 26.5 mph42.6 kmh 29.39 in995.3 mb - 0.00 in0.0 mm 0.13 in3.3 mm
01:20 PM 61.0°F16.1°C 53.0°F11.7°C 75% 15.0 mph WSW24.1 kmh WSW 26.5 mph42.6 kmh 29.39 in995.3 mb - 0.00 in0.0 mm 0.13 in3.3 mm
01:25 PM 61.6°F16.4°C 53.2°F11.8°C 74% 9.2 mph WSW14.8 kmh WSW 15.0 mph24.1 kmh 29.39 in995.3 mb - 0.00 in0.0 mm 0.13 in3.3 mm
01:30 PM 62.4°F16.9°C 53.3°F11.8°C 72% 17.3 mph WSW27.8 kmh WSW 24.2 mph38.9 kmh 29.39 in995.3 mb - 0.00 in0.0 mm 0.13 in3.3 mm
01:35 PM 63.2°F17.3°C 53.2°F11.8°C 70% 16.1 mph WSW25.9 kmh WSW 25.3 mph40.7 kmh 29.39 in995.3 mb - 0.00 in0.0 mm 0.13 in3.3 mm
01:40 PM 63.9°F17.7°C 53.5°F11.9°C 69% 12.7 mph WSW20.4 kmh WSW 21.9 mph35.2 kmh 29.39 in995.3 mb - 0.00 in0.0 mm 0.13 in3.3 mm
01:45 PM 64.5°F18.1°C 53.3°F11.8°C 67% 11.5 mph SW18.5 kmh SW 31.1 mph50.1 kmh 29.39 in995.3 mb - 0.00 in0.0 mm 0.13 in3.3 mm
01:50 PM 65.0°F18.3°C 52.1°F11.2°C 63% 13.8 mph WSW22.2 kmh WSW 26.5 mph42.6 kmh 29.39 in995.3 mb - 0.00 in0.0 mm 0.13 in3.3 mm
01:55 PM 65.5°F18.6°C 51.7°F10.9°C 61% 10.4 mph W16.7 kmh W 23.0 mph37.0 kmh 29.39 in995.3 mb - 0.00 in0.0 mm 0.13 in3.3 mm
02:00 PM 65.6°F18.7°C 50.4°F10.2°C 58% 16.1 mph WSW25.9 kmh WSW 19.6 mph31.5 kmh 29.39 in995.3 mb - 0.00 in0.0 mm 0.13 in3.3 mm
02:10 PM 66.0°F18.9°C 49.4°F9.7°C 55% 19.6 mph WSW31.5 kmh WSW 32.2 mph51.8 kmh 29.40 in995.6 mb - 0.00 in0.0 mm 0.13 in3.3 mm
02:15 PM 65.9°F18.8°C 49.3°F9.6°C 55% 19.6 mph WSW31.5 kmh WSW 31.1 mph50.1 kmh 29.40 in995.6 mb - 0.00 in0.0 mm 0.13 in3.3 mm
02:20 PM 65.7°F18.7°C 49.1°F9.5°C 55% 17.3 mph WSW27.8 kmh WSW 18.4 mph29.6 kmh 29.41 in995.9 mb - 0.00 in0.0 mm 0.13 in3.3 mm
02:25 PM 65.8°F18.8°C 49.7°F9.8°C 56% 17.3 mph WSW27.8 kmh WSW 29.9 mph48.1 kmh 29.40 in995.6 mb - 0.00 in0.0 mm 0.13 in3.3 mm
02:30 PM 65.8°F18.8°C 49.7°F9.8°C 56% 17.3 mph WSW27.8 kmh WSW 23.0 mph37.0 kmh 29.41 in995.9 mb - 0.00 in0.0 mm 0.13 in3.3 mm
02:35 PM 65.6°F18.7°C 49.5°F9.7°C 56% 18.4 mph SW29.6 kmh SW 25.3 mph40.7 kmh 29.41 in995.9 mb - 0.00 in0.0 mm 0.13 in3.3 mm
02:40 PM 65.2°F18.4°C 50.0°F10.0°C 58% 13.8 mph WSW22.2 kmh WSW 23.0 mph37.0 kmh 29.41 in995.9 mb - 0.00 in0.0 mm 0.13 in3.3 mm
02:45 PM 65.4°F18.6°C 50.7°F10.4°C 59% 16.1 mph SW25.9 kmh SW 21.9 mph35.2 kmh 29.41 in995.9 mb - 0.00 in0.0 mm 0.13 in3.3 mm
02:50 PM 65.4°F18.6°C 48.3°F9.1°C 54% 17.3 mph WSW27.8 kmh WSW 19.6 mph31.5 kmh 29.41 in995.9 mb - 0.00 in0.0 mm 0.13 in3.3 mm
02:55 PM 65.7°F18.7°C 48.6°F9.2°C 54% 12.7 mph SW20.4 kmh SW 24.2 mph38.9 kmh 29.41 in995.9 mb - 0.00 in0.0 mm 0.13 in3.3 mm
03:00 PM 65.7°F18.7°C 49.1°F9.5°C 55% 8.1 mph SW13.0 kmh SW 17.3 mph27.8 kmh 29.41 in995.9 mb - 0.00 in0.0 mm 0.13 in3.3 mm
03:10 PM 65.3°F18.5°C 50.2°F10.1°C 58% 17.3 mph SW27.8 kmh SW 21.9 mph35.2 kmh 29.41 in995.9 mb - 0.00 in0.0 mm 0.13 in3.3 mm
03:15 PM 65.1°F18.4°C 50.0°F10.0°C 58% 9.2 mph WSW14.8 kmh WSW 19.6 mph31.5 kmh 29.42 in996.3 mb - 0.00 in0.0 mm 0.13 in3.3 mm
03:20 PM 65.1°F18.4°C 49.0°F9.4°C 56% 13.8 mph WSW22.2 kmh WSW 18.4 mph29.6 kmh 29.42 in996.3 mb - 0.00 in0.0 mm 0.13 in3.3 mm
03:25 PM 65.3°F18.5°C 49.2°F9.6°C 56% 13.8 mph WSW22.2 kmh WSW 26.5 mph42.6 kmh 29.42 in996.3 mb - 0.00 in0.0 mm 0.13 in3.3 mm
03:30 PM 65.3°F18.5°C 48.2°F9.0°C 54% 16.1 mph WSW25.9 kmh WSW 25.3 mph40.7 kmh 29.43 in996.6 mb - 0.00 in0.0 mm 0.13 in3.3 mm
03:35 PM 65.4°F18.6°C 47.4°F8.6°C 52% 16.1 mph WSW25.9 kmh WSW 26.5 mph42.6 kmh 29.43 in996.6 mb - 0.00 in0.0 mm 0.13 in3.3 mm
03:40 PM 65.6°F18.7°C 47.0°F8.3°C 51% 16.1 mph W25.9 kmh W 28.8 mph46.3 kmh 29.43 in996.6 mb - 0.00 in0.0 mm 0.13 in3.3 mm
03:45 PM 65.6°F18.7°C 45.4°F7.4°C 48% 21.9 mph WSW35.2 kmh WSW 42.6 mph68.6 kmh 29.43 in996.6 mb - 0.00 in0.0 mm 0.13 in3.3 mm
03:50 PM 65.6°F18.7°C 44.8°F7.1°C 47% 9.2 mph WSW14.8 kmh WSW 19.6 mph31.5 kmh 29.43 in996.6 mb - 0.00 in0.0 mm 0.13 in3.3 mm
03:55 PM 65.6°F18.7°C 44.8°F7.1°C 47% 13.8 mph W22.2 kmh W 18.4 mph29.6 kmh 29.43 in996.6 mb - 0.00 in0.0 mm 0.13 in3.3 mm
04:00 PM 65.5°F18.6°C 44.2°F6.8°C 46% 16.1 mph WSW25.9 kmh WSW 29.9 mph48.1 kmh 29.43 in996.6 mb - 0.00 in0.0 mm 0.13 in3.3 mm
04:10 PM 65.5°F18.6°C 44.2°F6.8°C 46% 15.0 mph W24.1 kmh W 25.3 mph40.7 kmh 29.44 in997.0 mb - 0.00 in0.0 mm 0.13 in3.3 mm
04:15 PM 65.5°F18.6°C 43.6°F6.4°C 45% 10.4 mph W16.7 kmh W 25.3 mph40.7 kmh 29.44 in997.0 mb - 0.00 in0.0 mm 0.13 in3.3 mm
04:20 PM 65.5°F18.6°C 43.6°F6.4°C 45% 16.1 mph WSW25.9 kmh WSW 29.9 mph48.1 kmh 29.43 in996.6 mb - 0.00 in0.0 mm 0.13 in3.3 mm
04:25 PM 65.5°F18.6°C 43.6°F6.4°C 45% 12.7 mph WSW20.4 kmh WSW 21.9 mph35.2 kmh 29.44 in997.0 mb - 0.00 in0.0 mm 0.13 in3.3 mm
04:30 PM 65.5°F18.6°C 42.4°F5.8°C 43% 19.6 mph W31.5 kmh W 27.6 mph44.4 kmh 29.44 in997.0 mb - 0.00 in0.0 mm 0.13 in3.3 mm
04:35 PM 65.5°F18.6°C 42.4°F5.8°C 43% 18.4 mph WSW29.6 kmh WSW 26.5 mph42.6 kmh 29.44 in997.0 mb - 0.00 in0.0 mm 0.13 in3.3 mm
04:40 PM 65.4°F18.6°C 42.3°F5.7°C 43% 18.4 mph WSW29.6 kmh WSW 26.5 mph42.6 kmh 29.44 in997.0 mb - 0.00 in0.0 mm 0.13 in3.3 mm
04:45 PM 65.3°F18.5°C 42.8°F6.0°C 44% 15.0 mph WSW24.1 kmh WSW 35.7 mph57.5 kmh 29.44 in997.0 mb - 0.00 in0.0 mm 0.13 in3.3 mm
04:50 PM 65.1°F18.4°C 42.7°F5.9°C 44% 17.3 mph WSW27.8 kmh WSW 21.9 mph35.2 kmh 29.44 in997.0 mb - 0.00 in0.0 mm 0.13 in3.3 mm
04:55 PM 65.1°F18.4°C 43.2°F6.2°C 45% 17.3 mph WSW27.8 kmh WSW 28.8 mph46.3 kmh 29.44 in997.0 mb - 0.00 in0.0 mm 0.13 in3.3 mm
05:00 PM 64.9°F18.3°C 42.5°F5.8°C 44% 15.0 mph WSW24.1 kmh WSW 19.6 mph31.5 kmh 29.44 in997.0 mb - 0.00 in0.0 mm 0.13 in3.3 mm
05:10 PM 64.8°F18.2°C 42.4°F5.8°C 44% 12.7 mph W20.4 kmh W 34.5 mph55.5 kmh 29.45 in997.3 mb - 0.00 in0.0 mm 0.13 in3.3 mm
05:15 PM 64.6°F18.1°C 42.2°F5.7°C 44% 19.6 mph WSW31.5 kmh WSW 28.8 mph46.3 kmh 29.44 in997.0 mb - 0.00 in0.0 mm 0.13 in3.3 mm
05:20 PM 64.5°F18.1°C 42.7°F5.9°C 45% 11.5 mph WSW18.5 kmh WSW 16.1 mph25.9 kmh 29.44 in997.0 mb - 0.00 in0.0 mm 0.13 in3.3 mm
05:25 PM 64.4°F18.0°C 42.6°F5.9°C 45% 15.0 mph WSW24.1 kmh WSW 19.6 mph31.5 kmh 29.44 in997.0 mb - 0.00 in0.0 mm 0.13 in3.3 mm
05:30 PM 64.3°F17.9°C 43.1°F6.2°C 46% 12.7 mph WSW20.4 kmh WSW 19.6 mph31.5 kmh 29.45 in997.3 mb - 0.00 in0.0 mm 0.13 in3.3 mm
05:35 PM 64.1°F17.8°C 42.9°F6.1°C 46% 11.5 mph WSW18.5 kmh WSW 17.3 mph27.8 kmh 29.44 in997.0 mb - 0.00 in0.0 mm 0.13 in3.3 mm
05:40 PM 64.0°F17.8°C 43.3°F6.3°C 47% 13.8 mph SW22.2 kmh SW 21.9 mph35.2 kmh 29.44 in997.0 mb - 0.00 in0.0 mm 0.13 in3.3 mm
05:45 PM 63.7°F17.6°C 43.1°F6.2°C 47% 13.8 mph WSW22.2 kmh WSW 19.6 mph31.5 kmh 29.44 in997.0 mb - 0.00 in0.0 mm 0.13 in3.3 mm
05:50 PM 63.5°F17.5°C 43.4°F6.3°C 48% 12.7 mph WSW20.4 kmh WSW 19.6 mph31.5 kmh 29.45 in997.3 mb - 0.00 in0.0 mm 0.13 in3.3 mm
05:55 PM 63.3°F17.4°C 43.8°F6.6°C 49% 10.4 mph WSW16.7 kmh WSW 19.6 mph31.5 kmh 29.45 in997.3 mb - 0.00 in0.0 mm 0.13 in3.3 mm
06:00 PM 63.1°F17.3°C 44.2°F6.8°C 50% 10.4 mph WSW16.7 kmh WSW 17.3 mph27.8 kmh 29.44 in997.0 mb - 0.00 in0.0 mm 0.13 in3.3 mm
06:10 PM 62.8°F17.1°C 44.9°F7.2°C 52% 8.1 mph WSW13.0 kmh WSW 11.5 mph18.5 kmh 29.45 in997.3 mb - 0.00 in0.0 mm 0.13 in3.3 mm
06:15 PM 62.7°F17.1°C 45.3°F7.4°C 53% 6.9 mph SW11.1 kmh SW 15.0 mph24.1 kmh 29.45 in997.3 mb - 0.00 in0.0 mm 0.13 in3.3 mm
06:20 PM 62.6°F17.0°C 46.6°F8.1°C 56% 5.8 mph SW9.3 kmh SW 11.5 mph18.5 kmh 29.45 in997.3 mb - 0.00 in0.0 mm 0.13 in3.3 mm
06:25 PM 62.3°F16.8°C 47.3°F8.5°C 58% 6.9 mph SW11.1 kmh SW 10.4 mph16.7 kmh 29.45 in997.3 mb - 0.00 in0.0 mm 0.13 in3.3 mm
06:30 PM 62.0°F16.7°C 48.4°F9.1°C 61% 6.9 mph WSW11.1 kmh WSW 9.2 mph14.8 kmh 29.45 in997.3 mb - 0.00 in0.0 mm 0.13 in3.3 mm
06:35 PM 61.7°F16.5°C 48.5°F9.2°C 62% 10.4 mph WSW16.7 kmh WSW 13.8 mph22.2 kmh 29.45 in997.3 mb - 0.00 in0.0 mm 0.13 in3.3 mm
06:40 PM 61.4°F16.3°C 49.1°F9.5°C 64% 9.2 mph WSW14.8 kmh WSW 16.1 mph25.9 kmh 29.45 in997.3 mb - 0.00 in0.0 mm 0.13 in3.3 mm
06:45 PM 61.2°F16.2°C 49.3°F9.6°C 65% 10.4 mph SW16.7 kmh SW 19.6 mph31.5 kmh 29.45 in997.3 mb - 0.00 in0.0 mm 0.13 in3.3 mm
06:50 PM 60.9°F16.1°C 49.5°F9.7°C 66% 9.2 mph SW14.8 kmh SW 11.5 mph18.5 kmh 29.45 in997.3 mb - 0.00 in0.0 mm 0.13 in3.3 mm
06:55 PM 60.7°F15.9°C 49.7°F9.8°C 67% 10.4 mph SW16.7 kmh SW 15.0 mph24.1 kmh 29.45 in997.3 mb - 0.00 in0.0 mm 0.13 in3.3 mm
07:00 PM 60.5°F15.8°C 49.5°F9.7°C 67% 8.1 mph SW13.0 kmh SW 11.5 mph18.5 kmh 29.45 in997.3 mb - 0.00 in0.0 mm 0.13 in3.3 mm
07:10 PM 60.2°F15.7°C 50.0°F10.0°C 69% 11.5 mph WSW18.5 kmh WSW 16.1 mph25.9 kmh 29.46 in997.6 mb - 0.00 in0.0 mm 0.13 in3.3 mm
07:15 PM 60.0°F15.6°C 49.8°F9.9°C 69% 8.1 mph SW13.0 kmh SW 11.5 mph18.5 kmh 29.46 in997.6 mb - 0.00 in0.0 mm 0.13 in3.3 mm
07:20 PM 59.8°F15.4°C 50.0°F10.0°C 70% 10.4 mph SW16.7 kmh SW 18.4 mph29.6 kmh 29.46 in997.6 mb - 0.00 in0.0 mm 0.13 in3.3 mm
07:25 PM 59.6°F15.3°C 49.8°F9.9°C 70% 9.2 mph SW14.8 kmh SW 15.0 mph24.1 kmh 29.46 in997.6 mb - 0.00 in0.0 mm 0.13 in3.3 mm
07:30 PM 59.5°F15.3°C 49.7°F9.8°C 70% 8.1 mph SW13.0 kmh SW 19.6 mph31.5 kmh 29.47 in998.0 mb - 0.00 in0.0 mm 0.13 in3.3 mm
07:35 PM 59.4°F15.2°C 49.6°F9.8°C 70% 11.5 mph SW18.5 kmh SW 21.9 mph35.2 kmh 29.47 in998.0 mb - 0.00 in0.0 mm 0.13 in3.3 mm
07:40 PM 59.3°F15.2°C 49.9°F9.9°C 71% 11.5 mph SW18.5 kmh SW 20.7 mph33.3 kmh 29.47 in998.0 mb - 0.00 in0.0 mm 0.13 in3.3 mm
07:45 PM 59.2°F15.1°C 49.8°F9.9°C 71% 6.9 mph SW11.1 kmh SW 17.3 mph27.8 kmh 29.47 in998.0 mb - 0.00 in0.0 mm 0.13 in3.3 mm
07:50 PM 59.2°F15.1°C 49.8°F9.9°C 71% 13.8 mph SW22.2 kmh SW 24.2 mph38.9 kmh 29.47 in998.0 mb - 0.00 in0.0 mm 0.13 in3.3 mm
07:55 PM 59.1°F15.1°C 49.7°F9.8°C 71% 10.4 mph SW16.7 kmh SW 15.0 mph24.1 kmh 29.47 in998.0 mb - 0.00 in0.0 mm 0.13 in3.3 mm
08:00 PM 59.1°F15.1°C 49.3°F9.6°C 70% 8.1 mph SW13.0 kmh SW 15.0 mph24.1 kmh 29.47 in998.0 mb - 0.00 in0.0 mm 0.13 in3.3 mm
08:10 PM 59.2°F15.1°C 49.4°F9.7°C 70% 9.2 mph WSW14.8 kmh WSW 16.1 mph25.9 kmh 29.47 in998.0 mb - 0.00 in0.0 mm 0.13 in3.3 mm
08:15 PM 59.2°F15.1°C 49.4°F9.7°C 70% 10.4 mph WSW16.7 kmh WSW 11.5 mph18.5 kmh 29.47 in998.0 mb - 0.00 in0.0 mm 0.13 in3.3 mm
08:20 PM 59.2°F15.1°C 49.0°F9.4°C 69% 8.1 mph SW13.0 kmh SW 19.6 mph31.5 kmh 29.47 in998.0 mb - 0.00 in0.0 mm 0.13 in3.3 mm
08:25 PM 59.1°F15.1°C 48.9°F9.4°C 69% 9.2 mph SW14.8 kmh SW 19.6 mph31.5 kmh 29.47 in998.0 mb - 0.00 in0.0 mm 0.13 in3.3 mm
08:30 PM 59.1°F15.1°C 48.9°F9.4°C 69% 11.5 mph SW18.5 kmh SW 18.4 mph29.6 kmh 29.47 in998.0 mb - 0.00 in0.0 mm 0.13 in3.3 mm
08:35 PM 59.0°F15.0°C 48.8°F9.3°C 69% 9.2 mph SW14.8 kmh SW 12.7 mph20.4 kmh 29.48 in998.3 mb - 0.00 in0.0 mm 0.13 in3.3 mm
08:40 PM 58.9°F14.9°C 49.1°F9.5°C 70% 9.2 mph SW14.8 kmh SW 11.5 mph18.5 kmh 29.48 in998.3 mb - 0.00 in0.0 mm 0.13 in3.3 mm
08:45 PM 58.7°F14.8°C 48.9°F9.4°C 70% 11.5 mph SW18.5 kmh SW 16.1 mph25.9 kmh 29.48 in998.3 mb - 0.00 in0.0 mm 0.13 in3.3 mm
08:50 PM 58.6°F14.8°C 48.8°F9.3°C 70% 11.5 mph SW18.5 kmh SW 18.4 mph29.6 kmh 29.48 in998.3 mb - 0.00 in0.0 mm 0.13 in3.3 mm
08:55 PM 58.4°F14.7°C 48.7°F9.3°C 70% 10.4 mph WSW16.7 kmh WSW 15.0 mph24.1 kmh 29.48 in998.3 mb - 0.00 in0.0 mm 0.13 in3.3 mm
09:00 PM 58.3°F14.6°C 49.0°F9.4°C 71% 8.1 mph SW13.0 kmh SW 12.7 mph20.4 kmh 29.48 in998.3 mb - 0.00 in0.0 mm 0.13 in3.3 mm
09:10 PM 58.1°F14.5°C 48.7°F9.3°C 71% 6.9 mph SW11.1 kmh SW 13.8 mph22.2 kmh 29.48 in998.3 mb - 0.00 in0.0 mm 0.13 in3.3 mm
09:15 PM 57.9°F14.4°C 48.6°F9.2°C 71% 10.4 mph SW16.7 kmh SW 17.3 mph27.8 kmh 29.48 in998.3 mb - 0.00 in0.0 mm 0.13 in3.3 mm
09:20 PM 57.8°F14.3°C 48.4°F9.1°C 71% 9.2 mph SW14.8 kmh SW 17.3 mph27.8 kmh 29.48 in998.3 mb - 0.00 in0.0 mm 0.13 in3.3 mm
09:25 PM 57.6°F14.2°C 48.3°F9.1°C 71% 6.9 mph SW11.1 kmh SW 8.1 mph13.0 kmh 29.48 in998.3 mb - 0.00 in0.0 mm 0.13 in3.3 mm
09:30 PM 57.6°F14.2°C 48.3°F9.1°C 71% 11.5 mph SW18.5 kmh SW 17.3 mph27.8 kmh 29.48 in998.3 mb - 0.00 in0.0 mm 0.13 in3.3 mm
09:35 PM 57.5°F14.2°C 48.2°F9.0°C 71% 9.2 mph SW14.8 kmh SW 17.3 mph27.8 kmh 29.48 in998.3 mb - 0.00 in0.0 mm 0.13 in3.3 mm
09:40 PM 57.5°F14.2°C 48.5°F9.2°C 72% 9.2 mph SW14.8 kmh SW 10.4 mph16.7 kmh 29.48 in998.3 mb - 0.00 in0.0 mm 0.13 in3.3 mm
09:45 PM 57.4°F14.1°C 48.4°F9.1°C 72% 9.2 mph SW14.8 kmh SW 18.4 mph29.6 kmh 29.48 in998.3 mb - 0.00 in0.0 mm 0.13 in3.3 mm
09:50 PM 57.3°F14.1°C 48.3°F9.1°C 72% 9.2 mph SW14.8 kmh SW 16.1 mph25.9 kmh 29.48 in998.3 mb - 0.00 in0.0 mm 0.13 in3.3 mm
09:55 PM 57.2°F14.0°C 48.6°F9.2°C 73% 10.4 mph SW16.7 kmh SW 13.8 mph22.2 kmh 29.48 in998.3 mb - 0.00 in0.0 mm 0.13 in3.3 mm
10:00 PM 57.1°F13.9°C 48.5°F9.2°C 73% 11.5 mph SW18.5 kmh SW 16.1 mph25.9 kmh 29.48 in998.3 mb - 0.00 in0.0 mm 0.13 in3.3 mm
10:10 PM 56.8°F13.8°C 49.0°F9.4°C 75% 6.9 mph SW11.1 kmh SW 15.0 mph24.1 kmh 29.48 in998.3 mb - 0.00 in0.0 mm 0.13 in3.3 mm
10:15 PM 56.5°F13.6°C 49.0°F9.4°C 76% 11.5 mph SW18.5 kmh SW 16.1 mph25.9 kmh 29.48 in998.3 mb - 0.00 in0.0 mm 0.13 in3.3 mm
10:20 PM 56.3°F13.5°C 49.2°F9.6°C 77% 8.1 mph SW13.0 kmh SW 12.7 mph20.4 kmh 29.48 in998.3 mb - 0.00 in0.0 mm 0.13 in3.3 mm
10:25 PM 56.1°F13.4°C 49.3°F9.6°C 78% 5.8 mph SW9.3 kmh SW 10.4 mph16.7 kmh 29.48 in998.3 mb - 0.00 in0.0 mm 0.13 in3.3 mm
10:30 PM 55.9°F13.3°C 49.1°F9.5°C 78% 10.4 mph WSW16.7 kmh WSW 16.1 mph25.9 kmh 29.48 in998.3 mb - 0.00 in0.0 mm 0.13 in3.3 mm
10:35 PM 55.7°F13.2°C 49.0°F9.4°C 78% 8.1 mph SW13.0 kmh SW 12.7 mph20.4 kmh 29.48 in998.3 mb - 0.00 in0.0 mm 0.13 in3.3 mm
10:40 PM 55.6°F13.1°C 49.2°F9.6°C 79% 8.1 mph SW13.0 kmh SW 17.3 mph27.8 kmh 29.48 in998.3 mb - 0.00 in0.0 mm 0.13 in3.3 mm
10:45 PM 55.5°F13.1°C 49.1°F9.5°C 79% 9.2 mph SW14.8 kmh SW 12.7 mph20.4 kmh 29.48 in998.3 mb - 0.00 in0.0 mm 0.13 in3.3 mm
10:50 PM 55.4°F13.0°C 49.0°F9.4°C 79% 8.1 mph SW13.0 kmh SW 13.8 mph22.2 kmh 29.48 in998.3 mb - 0.00 in0.0 mm 0.13 in3.3 mm
10:55 PM 55.3°F12.9°C 48.9°F9.4°C 79% 10.4 mph SW16.7 kmh SW 11.5 mph18.5 kmh 29.48 in998.3 mb - 0.00 in0.0 mm 0.13 in3.3 mm
11:00 PM 55.3°F12.9°C 48.9°F9.4°C 79% 5.8 mph SW9.3 kmh SW 11.5 mph18.5 kmh 29.48 in998.3 mb - 0.00 in0.0 mm 0.22 in5.6 mm
11:10 PM 55.2°F12.9°C 49.1°F9.5°C 80% 5.8 mph SW9.3 kmh SW 11.5 mph18.5 kmh 29.48 in998.3 mb - 0.00 in0.0 mm 0.22 in5.6 mm
11:15 PM 55.2°F12.9°C 49.1°F9.5°C 80% 5.8 mph SW9.3 kmh SW 10.4 mph16.7 kmh 29.48 in998.3 mb - 0.00 in0.0 mm 0.22 in5.6 mm
11:20 PM 55.1°F12.8°C 49.0°F9.4°C 80% 4.6 mph SW7.4 kmh SW 11.5 mph18.5 kmh 29.48 in998.3 mb - 0.00 in0.0 mm 0.22 in5.6 mm
11:25 PM 55.1°F12.8°C 49.4°F9.7°C 81% 9.2 mph SW14.8 kmh SW 16.1 mph25.9 kmh 29.48 in998.3 mb - 0.00 in0.0 mm 0.22 in5.6 mm
11:30 PM 55.1°F12.8°C 49.4°F9.7°C 81% 9.2 mph SW14.8 kmh SW 16.1 mph25.9 kmh 29.48 in998.3 mb - 0.00 in0.0 mm 0.22 in5.6 mm
11:35 PM 55.0°F12.8°C 49.3°F9.6°C 81% 5.8 mph SW9.3 kmh SW 11.5 mph18.5 kmh 29.47 in998.0 mb - 0.00 in0.0 mm 0.22 in5.6 mm
11:40 PM 55.0°F12.8°C 49.3°F9.6°C 81% 6.9 mph SW11.1 kmh SW 11.5 mph18.5 kmh 29.47 in998.0 mb - 0.00 in0.0 mm 0.22 in5.6 mm
11:45 PM 55.0°F12.8°C 49.3°F9.6°C 81% 6.9 mph SW11.1 kmh SW 11.5 mph18.5 kmh 29.47 in998.0 mb - 0.00 in0.0 mm 0.22 in5.6 mm
11:50 PM 55.0°F12.8°C 49.3°F9.6°C 81% 5.8 mph SW9.3 kmh SW 8.1 mph13.0 kmh 29.47 in998.0 mb - 0.00 in0.0 mm 0.22 in5.6 mm
11:55 PM 55.0°F12.8°C 49.3°F9.6°C 81% 6.9 mph SW11.1 kmh SW 10.4 mph16.7 kmh 29.47 in998.0 mb - 0.00 in0.0 mm 0.22 in5.6 mm